createdAt,value
2019-03-28T00:00:14.022Z,10.45
2019-03-28T00:02:52.797Z,10.43
2019-03-28T00:05:23.956Z,10.43
2019-03-28T00:07:56.140Z,10.41
2019-03-28T00:10:37.558Z,10.36
2019-03-28T00:13:08.796Z,10.31
2019-03-28T00:15:40.082Z,10.24
2019-03-28T00:18:11.232Z,10.26
2019-03-28T00:20:44.452Z,10.20
2019-03-28T00:23:17.299Z,10.19
2019-03-28T00:25:48.468Z,10.21
2019-03-28T00:28:26.433Z,10.23
2019-03-28T00:30:59.637Z,10.29
2019-03-28T00:33:30.886Z,10.27
2019-03-28T00:36:14.576Z,10.29
2019-03-28T00:38:45.769Z,10.30
2019-03-28T00:41:16.843Z,10.29
2019-03-28T00:43:48.132Z,10.26
2019-03-28T00:46:19.426Z,10.33
2019-03-28T00:48:50.726Z,10.27
2019-03-28T00:51:21.957Z,10.27
2019-03-28T00:53:53.133Z,10.28
2019-03-28T00:56:24.285Z,10.27
2019-03-28T00:58:55.397Z,10.30
2019-03-28T01:01:26.554Z,10.26
2019-03-28T01:03:57.808Z,10.22
2019-03-28T01:06:29.002Z,10.12
2019-03-28T01:09:00.276Z,10.15
2019-03-28T01:11:31.458Z,10.20
2019-03-28T01:14:08.755Z,10.12
2019-03-28T01:16:40.951Z,10.12
2019-03-28T01:19:19.192Z,10.13
2019-03-28T01:21:50.405Z,10.08
2019-03-28T01:24:21.535Z,9.96
2019-03-28T01:26:57.456Z,9.86
2019-03-28T01:29:25.666Z,9.91
2019-03-28T01:32:02.803Z,9.86
2019-03-28T01:34:53.051Z,9.80
2019-03-28T01:37:24.294Z,9.78
2019-03-28T01:39:55.498Z,9.76
2019-03-28T01:42:26.660Z,9.69
2019-03-28T01:44:57.830Z,9.60
2019-03-28T01:47:29.073Z,9.63
2019-03-28T01:50:00.295Z,9.55
2019-03-28T01:55:50.527Z,9.59
2019-03-28T01:58:33.504Z,9.67
2019-03-28T02:01:04.645Z,9.68
2019-03-28T02:03:35.901Z,9.58
2019-03-28T02:06:13.968Z,9.64
2019-03-28T02:08:45.237Z,9.63
2019-03-28T02:11:16.706Z,9.73
2019-03-28T02:13:47.939Z,9.64
2019-03-28T02:16:19.094Z,9.58
2019-03-28T02:18:50.361Z,9.59
2019-03-28T02:21:21.643Z,9.56
2019-03-28T02:23:52.932Z,9.63
2019-03-28T02:26:24.169Z,9.59
2019-03-28T02:28:55.448Z,9.57
2019-03-28T02:31:49.894Z,9.58
2019-03-28T02:34:21.044Z,9.60
2019-03-28T02:36:52.175Z,9.51
2019-03-28T02:39:24.416Z,9.56
2019-03-28T02:41:56.230Z,9.52
2019-03-28T02:44:27.309Z,9.47
2019-03-28T02:47:00.527Z,9.46
2019-03-28T02:49:31.712Z,9.56
2019-03-28T02:52:04.927Z,9.58
2019-03-28T02:54:36.083Z,9.64
2019-03-28T02:57:07.875Z,9.67
2019-03-28T02:59:39.245Z,9.69
2019-03-28T03:02:10.495Z,9.69
2019-03-28T03:04:41.776Z,9.72
2019-03-28T03:07:32.692Z,9.69
2019-03-28T03:10:03.934Z,9.71
2019-03-28T03:12:37.228Z,9.60
2019-03-28T03:15:11.022Z,9.67
2019-03-28T03:17:42.261Z,9.68
2019-03-28T03:20:13.503Z,9.62
2019-03-28T03:22:44.655Z,9.59
2019-03-28T03:25:15.956Z,9.65
2019-03-28T03:27:57.624Z,9.59
2019-03-28T03:30:20.205Z,9.60
2019-03-28T03:32:51.379Z,9.53
2019-03-28T03:35:22.547Z,9.53
2019-03-28T03:37:56.030Z,9.46
2019-03-28T03:40:27.385Z,9.42
2019-03-28T03:43:11.834Z,9.46
2019-03-28T03:45:43.178Z,9.49
2019-03-28T03:48:18.418Z,9.58
2019-03-28T03:50:54.767Z,9.64
2019-03-28T03:53:26.060Z,9.66
2019-03-28T03:55:57.194Z,9.66
2019-03-28T03:58:28.278Z,9.60
2019-03-28T04:01:21.588Z,9.58
2019-03-28T04:03:52.863Z,9.62
2019-03-28T04:06:24.149Z,9.51
2019-03-28T04:08:55.370Z,9.49
2019-03-28T04:11:26.617Z,9.42
2019-03-28T04:13:57.748Z,9.43
2019-03-28T04:16:29.489Z,9.43
2019-03-28T04:19:00.896Z,9.45
2019-03-28T04:21:32.080Z,9.50
2019-03-28T04:24:03.254Z,9.51
2019-03-28T04:26:34.462Z,9.50
2019-03-28T04:29:05.611Z,9.45
2019-03-28T04:31:42.884Z,9.45
2019-03-28T04:34:15.173Z,9.43
2019-03-28T04:36:46.388Z,9.43
2019-03-28T04:39:24.183Z,9.48
2019-03-28T04:42:35.615Z,9.47
2019-03-28T04:45:06.931Z,9.43
2019-03-28T04:47:39.134Z,9.49
2019-03-28T04:50:10.646Z,9.48
2019-03-28T04:52:47.240Z,9.48
2019-03-28T04:55:24.606Z,9.52
2019-03-28T04:57:59.477Z,9.58
2019-03-28T05:00:30.758Z,9.58
2019-03-28T05:03:01.970Z,9.49
2019-03-28T05:05:33.171Z,9.46
2019-03-28T05:08:04.363Z,9.46
2019-03-28T05:10:35.578Z,9.50
2019-03-28T05:13:06.866Z,9.53
2019-03-28T05:15:44.211Z,9.56
2019-03-28T05:18:21.215Z,9.57
2019-03-28T05:20:52.454Z,9.59
2019-03-28T05:23:28.029Z,9.63
2019-03-28T05:26:00.360Z,9.65
2019-03-28T05:28:38.207Z,9.69
2019-03-28T05:31:14.477Z,9.71
2019-03-28T05:33:45.759Z,9.77
2019-03-28T05:36:17.124Z,9.80
2019-03-28T05:38:48.393Z,9.78
2019-03-28T05:41:19.631Z,9.78
2019-03-28T05:43:50.783Z,9.80
2019-03-28T05:46:21.977Z,9.84
2019-03-28T05:48:53.212Z,9.75
2019-03-28T05:51:24.490Z,9.81
2019-03-28T05:53:55.670Z,9.78
2019-03-28T05:56:26.822Z,9.78
2019-03-28T05:59:10.258Z,9.82
2019-03-28T06:01:37.252Z,9.75
2019-03-28T06:04:14.122Z,9.83
2019-03-28T06:06:49.351Z,9.83
2019-03-28T06:09:20.547Z,9.81
2019-03-28T06:11:53.040Z,9.80
2019-03-28T06:14:26.526Z,9.75
2019-03-28T06:16:57.747Z,9.86
2019-03-28T06:19:32.797Z,9.87
2019-03-28T06:22:05.032Z,9.92
2019-03-28T06:24:36.203Z,9.99
2019-03-28T06:27:07.619Z,10.11
2019-03-28T06:29:38.955Z,10.04
2019-03-28T06:32:10.124Z,9.88
2019-03-28T06:34:42.328Z,9.83
2019-03-28T06:37:13.539Z,9.85
2019-03-28T06:39:56.205Z,9.77
2019-03-28T06:42:32.455Z,9.65
2019-03-28T06:45:04.112Z,9.78
2019-03-28T06:47:38.549Z,9.85
2019-03-28T06:50:09.852Z,9.91
2019-03-28T06:52:43.047Z,10.00
2019-03-28T06:55:14.309Z,9.96
2019-03-28T06:57:46.650Z,10.00
2019-03-28T07:00:20.067Z,9.94
2019-03-28T07:02:52.255Z,9.95
2019-03-28T07:05:23.454Z,9.98
2019-03-28T07:07:54.669Z,10.02
2019-03-28T07:10:26.058Z,9.94
2019-03-28T07:12:57.234Z,9.98
2019-03-28T07:15:32.611Z,9.88
2019-03-28T07:18:03.914Z,9.87
2019-03-28T07:20:35.140Z,10.04
2019-03-28T07:23:07.331Z,10.08
2019-03-28T07:25:38.593Z,10.12
2019-03-28T07:28:15.625Z,10.16
2019-03-28T07:30:57.837Z,10.09
2019-03-28T07:33:30.220Z,10.21
2019-03-28T07:36:15.827Z,10.24
2019-03-28T07:38:47.218Z,10.33
2019-03-28T07:41:41.315Z,10.30
2019-03-28T07:44:12.650Z,10.40
2019-03-28T07:46:43.791Z,10.34
2019-03-28T07:49:26.312Z,10.34
2019-03-28T07:51:57.441Z,10.33
2019-03-28T07:54:28.702Z,10.29
2019-03-28T07:57:00.085Z,10.21
2019-03-28T07:59:37.752Z,10.36
2019-03-28T08:02:14.518Z,10.48
2019-03-28T08:04:46.145Z,10.45
2019-03-28T08:07:19.432Z,10.39
2019-03-28T08:09:57.589Z,10.39
2019-03-28T08:12:51.190Z,10.26
2019-03-28T08:15:24.226Z,10.32
2019-03-28T08:17:56.116Z,10.52
2019-03-28T08:20:34.070Z,10.64
2019-03-28T08:23:05.324Z,10.63
2019-03-28T08:25:36.657Z,10.69
2019-03-28T08:28:07.923Z,10.64
2019-03-28T08:30:39.829Z,10.65
2019-03-28T08:33:13.093Z,10.61
2019-03-28T08:35:44.394Z,10.75
2019-03-28T08:38:15.811Z,10.76
2019-03-28T08:40:52.972Z,10.65
2019-03-28T08:43:24.150Z,10.78
2019-03-28T08:45:55.410Z,10.84
2019-03-28T08:48:27.835Z,10.95
2019-03-28T08:51:00.108Z,10.96
2019-03-28T08:53:31.425Z,11.04
2019-03-28T08:56:02.825Z,11.04
2019-03-28T08:58:40.187Z,11.14
2019-03-28T09:01:11.591Z,11.15
2019-03-28T09:03:43.828Z,11.13
2019-03-28T09:06:19.668Z,11.19
2019-03-28T09:09:11.369Z,11.17
2019-03-28T09:11:44.557Z,11.18
2019-03-28T09:14:15.873Z,11.31
2019-03-28T09:16:47.211Z,11.24
2019-03-28T09:19:27.460Z,11.20
2019-03-28T09:21:58.735Z,11.22
2019-03-28T09:24:29.795Z,11.33
2019-03-28T09:27:05.592Z,11.26
2019-03-28T09:29:44.197Z,11.35
2019-03-28T09:32:15.425Z,11.32
2019-03-28T09:34:46.834Z,11.49
2019-03-28T09:37:17.991Z,11.53
2019-03-28T09:39:50.321Z,11.61
2019-03-28T09:42:21.603Z,11.72
2019-03-28T09:44:52.830Z,11.83
2019-03-28T09:47:25.070Z,11.81
2019-03-28T09:49:56.369Z,12.00
2019-03-28T09:52:27.523Z,12.05
2019-03-28T09:54:58.740Z,12.00
2019-03-28T09:57:29.830Z,11.97
2019-03-28T10:00:01.025Z,12.07
2019-03-28T10:02:32.443Z,11.93
2019-03-28T10:05:03.692Z,12.15
2019-03-28T10:07:38.452Z,12.25
2019-03-28T10:10:09.590Z,12.39
2019-03-28T10:12:44.065Z,12.59
2019-03-28T10:15:16.036Z,12.65
2019-03-28T10:17:47.350Z,12.43
2019-03-28T10:20:18.621Z,12.42
2019-03-28T10:22:53.460Z,12.48
2019-03-28T10:25:24.763Z,12.53
2019-03-28T10:27:56.964Z,12.59
2019-03-28T10:30:41.937Z,12.67
2019-03-28T10:33:13.267Z,12.48
2019-03-28T10:35:44.446Z,12.58
2019-03-28T10:38:15.779Z,12.67
2019-03-28T10:40:47.014Z,12.53
2019-03-28T10:43:18.331Z,12.67
2019-03-28T10:45:51.558Z,12.87
2019-03-28T10:48:23.546Z,12.70
2019-03-28T10:51:03.774Z,12.84
2019-03-28T10:53:37.993Z,12.98
2019-03-28T10:56:20.912Z,13.10
2019-03-28T10:58:50.591Z,13.22
2019-03-28T11:01:41.608Z,13.25
2019-03-28T11:04:03.888Z,13.36
2019-03-28T11:06:35.080Z,13.40
2019-03-28T11:09:08.586Z,13.32
2019-03-28T11:11:39.953Z,13.39
2019-03-28T11:14:16.354Z,13.36
2019-03-28T11:16:48.344Z,13.17
2019-03-28T11:19:19.750Z,13.26
2019-03-28T11:21:58.861Z,13.04
2019-03-28T11:24:30.056Z,13.19
2019-03-28T11:27:08.751Z,13.33
2019-03-28T11:29:39.999Z,13.32
2019-03-28T11:32:11.210Z,13.34
2019-03-28T11:34:42.495Z,13.27
2019-03-28T11:37:25.317Z,13.45
2019-03-28T11:39:48.721Z,13.66
2019-03-28T11:42:20.958Z,13.74
2019-03-28T11:44:57.781Z,13.57
2019-03-28T11:47:44.264Z,13.67
2019-03-28T11:50:17.286Z,13.64
2019-03-28T11:52:48.627Z,13.63
2019-03-28T11:55:19.843Z,13.50
2019-03-28T11:57:52.121Z,13.41
2019-03-28T12:00:25.384Z,13.43
2019-03-28T12:02:56.579Z,13.48
2019-03-28T12:05:27.891Z,13.44
2019-03-28T12:08:10.495Z,13.49
2019-03-28T12:10:46.747Z,13.59
2019-03-28T12:13:17.938Z,13.50
2019-03-28T12:15:51.167Z,13.56
2019-03-28T12:18:25.006Z,13.67
2019-03-28T12:20:55.451Z,13.77
2019-03-28T12:23:32.475Z,13.85
2019-03-28T12:26:03.636Z,13.91
2019-03-28T12:28:34.835Z,13.93
2019-03-28T12:31:07.204Z,13.97
2019-03-28T12:33:40.345Z,13.98
2019-03-28T12:36:11.675Z,14.07
2019-03-28T12:38:43.135Z,14.10
2019-03-28T12:41:14.417Z,14.06
2019-03-28T12:43:45.565Z,14.12
2019-03-28T12:46:16.762Z,14.10
2019-03-28T12:48:48.016Z,14.06
2019-03-28T12:51:22.126Z,14.14
2019-03-28T12:53:54.163Z,13.81
2019-03-28T12:56:26.470Z,13.77
2019-03-28T12:58:58.697Z,13.84
2019-03-28T13:01:31.788Z,13.83
2019-03-28T13:04:03.096Z,13.86
2019-03-28T13:06:36.317Z,13.53
2019-03-28T13:09:09.948Z,13.54
2019-03-28T13:11:41.473Z,13.52
2019-03-28T13:14:12.701Z,13.61
2019-03-28T13:16:43.959Z,13.65
2019-03-28T13:19:15.301Z,13.62
2019-03-28T13:21:46.505Z,13.59
2019-03-28T13:24:17.731Z,13.63
2019-03-28T13:26:48.860Z,13.52
2019-03-28T13:29:20.010Z,13.53
2019-03-28T13:32:01.208Z,13.61
2019-03-28T13:34:32.398Z,13.56
2019-03-28T13:37:13.604Z,13.52
2019-03-28T13:39:44.846Z,13.52
2019-03-28T13:42:23.536Z,13.72
2019-03-28T13:44:59.847Z,13.70
2019-03-28T13:47:36.756Z,13.70
2019-03-28T13:50:08.396Z,13.41
2019-03-28T13:52:41.740Z,13.64
2019-03-28T13:55:16.113Z,13.41
2019-03-28T13:57:47.879Z,13.69
2019-03-28T14:00:27.489Z,13.53
2019-03-28T14:02:59.175Z,13.67
2019-03-28T14:05:30.929Z,13.75
2019-03-28T14:08:20.264Z,13.77
2019-03-28T14:10:55.417Z,13.40
2019-03-28T14:13:40.760Z,13.62
2019-03-28T14:16:16.943Z,13.59
2019-03-28T14:18:54.118Z,13.73
2019-03-28T14:21:25.363Z,13.77
2019-03-28T14:23:59.052Z,13.60
2019-03-28T14:26:30.245Z,13.42
2019-03-28T14:29:01.516Z,13.46
2019-03-28T14:31:34.843Z,13.60
2019-03-28T14:34:19.138Z,13.72
2019-03-28T14:36:50.370Z,13.67
2019-03-28T14:39:21.579Z,13.61
2019-03-28T14:41:52.929Z,13.66
2019-03-28T14:44:24.302Z,13.65
2019-03-28T14:46:56.371Z,13.49
2019-03-28T14:49:27.966Z,13.41
2019-03-28T14:52:01.520Z,13.39
2019-03-28T14:54:36.950Z,13.47
2019-03-28T14:57:09.856Z,13.38
2019-03-28T14:59:46.954Z,13.31
2019-03-28T15:02:18.336Z,13.39
2019-03-28T15:04:49.703Z,13.38
2019-03-28T15:07:20.951Z,13.53
2019-03-28T15:09:52.206Z,13.23
2019-03-28T15:12:30.391Z,13.26
2019-03-28T15:15:01.782Z,13.26
2019-03-28T15:17:35.022Z,13.20
2019-03-28T15:20:06.914Z,13.27
2019-03-28T15:22:50.120Z,13.30
2019-03-28T15:25:21.430Z,13.13
2019-03-28T15:27:59.081Z,13.16
2019-03-28T15:30:32.511Z,13.27
2019-03-28T15:33:11.594Z,13.29
2019-03-28T15:35:42.898Z,13.30
2019-03-28T15:38:14.924Z,13.32
2019-03-28T15:40:52.733Z,13.20
2019-03-28T15:43:29.865Z,13.29
2019-03-28T15:46:01.293Z,13.26
2019-03-28T15:48:37.447Z,13.19
2019-03-28T15:51:09.807Z,13.32
2019-03-28T15:53:46.294Z,13.25
2019-03-28T15:56:22.662Z,13.19
2019-03-28T15:58:54.955Z,13.13
2019-03-28T16:01:26.317Z,13.22
2019-03-28T16:04:02.469Z,13.31
2019-03-28T16:06:33.842Z,13.25
2019-03-28T16:09:06.660Z,13.17
2019-03-28T16:12:02.069Z,13.26
2019-03-28T16:14:27.656Z,13.25
2019-03-28T16:16:58.914Z,13.23
2019-03-28T16:19:30.041Z,13.33
2019-03-28T16:22:04.052Z,13.25
2019-03-28T16:24:38.296Z,13.21
2019-03-28T16:27:10.621Z,13.14
2019-03-28T16:29:41.873Z,13.20
2019-03-28T16:32:16.069Z,13.15
2019-03-28T16:35:04.576Z,13.16
2019-03-28T16:37:37.884Z,13.05
2019-03-28T16:40:19.267Z,13.04
2019-03-28T16:43:01.124Z,12.98
2019-03-28T16:45:32.400Z,12.95
2019-03-28T16:48:13.398Z,12.93
2019-03-28T16:50:50.133Z,12.91
2019-03-28T16:53:24.206Z,12.98
2019-03-28T16:56:01.548Z,12.93
2019-03-28T16:58:34.891Z,12.99
2019-03-28T17:01:09.637Z,13.03
2019-03-28T17:03:48.995Z,13.08
2019-03-28T17:06:20.693Z,13.02
2019-03-28T17:09:05.564Z,13.05
2019-03-28T17:11:55.270Z,12.96
2019-03-28T17:14:26.653Z,12.85
2019-03-28T17:16:57.889Z,12.97
2019-03-28T17:19:44.446Z,12.91
2019-03-28T17:22:15.815Z,12.91
2019-03-28T17:24:57.181Z,12.86
2019-03-28T17:27:28.519Z,12.98
2019-03-28T17:30:12.201Z,12.95
2019-03-28T17:32:47.388Z,12.92
2019-03-28T17:35:24.588Z,12.89
2019-03-28T17:37:56.874Z,12.84
2019-03-28T17:40:28.095Z,12.90
2019-03-28T17:43:04.879Z,12.85
2019-03-28T17:45:36.326Z,12.81
2019-03-28T17:48:14.431Z,12.82
2019-03-28T17:50:51.513Z,12.79
2019-03-28T17:53:24.185Z,12.73
2019-03-28T17:55:56.771Z,12.71
2019-03-28T17:58:32.445Z,12.72
2019-03-28T18:01:26.432Z,12.79
2019-03-28T18:04:03.185Z,12.80
2019-03-28T18:06:52.993Z,12.82
2019-03-28T18:09:24.322Z,12.82
2019-03-28T18:11:55.518Z,12.82
2019-03-28T18:14:36.569Z,12.81
2019-03-28T18:17:15.751Z,12.81
2019-03-28T18:19:47.143Z,12.78
2019-03-28T18:22:34.636Z,12.76
2019-03-28T18:25:06.104Z,12.71
2019-03-28T18:27:49.621Z,12.59
2019-03-28T18:30:22.026Z,12.63
2019-03-28T18:32:53.311Z,12.58
2019-03-28T18:35:24.704Z,12.55
2019-03-28T18:37:56.080Z,12.52
2019-03-28T18:40:31.931Z,12.58
2019-03-28T18:43:09.171Z,12.55
2019-03-28T18:45:44.181Z,12.56
2019-03-28T18:48:27.501Z,12.46
2019-03-28T18:50:49.573Z,12.42
2019-03-28T18:53:22.257Z,12.42
2019-03-28T18:56:04.695Z,12.23
2019-03-28T18:58:37.479Z,12.40
2019-03-28T19:01:09.309Z,12.35
2019-03-28T19:03:40.801Z,12.26
2019-03-28T19:06:14.955Z,12.09
2019-03-28T19:08:56.275Z,12.14
2019-03-28T19:11:27.819Z,12.14
2019-03-28T19:14:03.064Z,12.13
2019-03-28T19:16:34.643Z,12.07
2019-03-28T19:19:08.229Z,12.09
2019-03-28T19:21:42.866Z,12.02
2019-03-28T19:24:14.408Z,11.81
2019-03-28T19:26:45.863Z,11.84
2019-03-28T19:29:17.320Z,11.69
2019-03-28T19:31:49.280Z,11.56
2019-03-28T19:34:27.068Z,11.50
2019-03-28T19:37:08.254Z,11.51
2019-03-28T19:39:42.378Z,11.49
2019-03-28T19:42:14.126Z,11.32
2019-03-28T19:44:51.358Z,11.21
2019-03-28T19:47:28.586Z,11.22
2019-03-28T19:49:59.638Z,11.11
2019-03-28T19:52:31.597Z,11.15
2019-03-28T19:55:03.574Z,11.12
2019-03-28T19:57:35.330Z,11.10
2019-03-28T20:00:07.802Z,11.05
2019-03-28T20:02:39.989Z,11.03
2019-03-28T20:05:12.825Z,10.96
2019-03-28T20:07:46.014Z,10.92
2019-03-28T20:10:18.594Z,10.88
2019-03-28T20:12:51.411Z,10.82
2019-03-28T20:15:25.426Z,10.75
2019-03-28T20:17:57.171Z,10.73
2019-03-28T20:20:32.206Z,10.65
2019-03-28T20:23:04.903Z,10.66
2019-03-28T20:25:38.587Z,10.61
2019-03-28T20:28:14.462Z,10.58
2019-03-28T20:30:48.973Z,10.58
2019-03-28T20:33:20.725Z,10.52
2019-03-28T20:36:11.657Z,10.42
2019-03-28T20:38:27.724Z,10.37
2019-03-28T20:40:59.381Z,10.31
2019-03-28T20:43:31.033Z,10.33
2019-03-28T20:46:02.969Z,10.32
2019-03-28T20:48:34.871Z,10.22
2019-03-28T20:51:07.427Z,10.20
2019-03-28T20:53:38.878Z,10.14
2019-03-28T20:56:10.421Z,10.06
2019-03-28T20:58:48.021Z,10.00
2019-03-28T21:01:19.573Z,9.95
2019-03-28T21:03:51.041Z,9.94
2019-03-28T21:06:22.883Z,9.86
2019-03-28T21:08:54.176Z,9.85
2019-03-28T21:11:25.837Z,9.82
2019-03-28T21:13:57.537Z,9.91
2019-03-28T21:16:33.762Z,9.88
2019-03-28T21:19:17.339Z,9.82
2019-03-28T21:21:48.898Z,9.80
2019-03-28T21:24:20.293Z,9.76
2019-03-28T21:26:51.785Z,9.77
2019-03-28T21:29:23.233Z,9.75
2019-03-28T21:32:14.020Z,9.76
2019-03-28T21:34:49.857Z,9.66
2019-03-28T21:37:21.114Z,9.64
2019-03-28T21:39:57.401Z,9.59
2019-03-28T21:42:30.683Z,9.54
2019-03-28T21:45:11.275Z,9.51
2019-03-28T21:47:43.477Z,9.48
2019-03-28T21:50:14.810Z,9.45
2019-03-28T21:52:46.119Z,9.39
2019-03-28T21:55:18.375Z,9.38
2019-03-28T21:58:05.066Z,9.26
2019-03-28T22:00:36.561Z,9.23
2019-03-28T22:03:16.874Z,9.24
2019-03-28T22:05:48.534Z,9.22
2019-03-28T22:08:27.665Z,9.13
2019-03-28T22:10:58.861Z,9.13
2019-03-28T22:13:31.185Z,9.15
2019-03-28T22:16:02.380Z,9.16
2019-03-28T22:18:33.902Z,9.14
2019-03-28T22:21:09.404Z,9.08
2019-03-28T22:23:43.352Z,9.01
2019-03-28T22:26:15.989Z,8.96
2019-03-28T22:28:55.380Z,8.93
2019-03-28T22:31:26.829Z,8.93
2019-03-28T22:33:58.993Z,8.93
2019-03-28T22:36:30.253Z,8.87
2019-03-28T22:39:01.783Z,8.76
2019-03-28T22:41:45.525Z,8.77
2019-03-28T22:44:16.656Z,8.72
2019-03-28T22:46:47.894Z,8.77
2019-03-28T22:49:19.340Z,8.72
2019-03-28T22:51:50.663Z,8.73
2019-03-28T22:54:28.356Z,8.70
2019-03-28T22:57:00.169Z,8.72
2019-03-28T22:59:31.569Z,8.71
2019-03-28T23:02:03.908Z,8.70
2019-03-28T23:04:49.601Z,8.65
2019-03-28T23:07:22.709Z,8.53
2019-03-28T23:09:53.905Z,8.51
2019-03-28T23:12:53.927Z,8.49
2019-03-28T23:15:25.692Z,8.48
2019-03-28T23:17:58.110Z,8.44
2019-03-28T23:20:33.963Z,8.42
2019-03-28T23:23:05.371Z,8.40
2019-03-28T23:25:44.792Z,8.26
2019-03-28T23:28:21.615Z,8.25
2019-03-28T23:30:56.009Z,8.22
2019-03-28T23:33:28.280Z,8.18
2019-03-28T23:39:26.983Z,8.16
2019-03-28T23:42:07.955Z,8.17
2019-03-28T23:45:06.574Z,8.13
2019-03-28T23:47:55.815Z,8.05
2019-03-28T23:50:30.993Z,8.01
2019-03-28T23:53:02.320Z,8.01
2019-03-28T23:55:55.198Z,8.03
2019-03-28T23:58:26.346Z,8.01
